createdAt,value
2018-08-16T07:42:36.000Z,0
2018-08-16T07:43:34.000Z,0
2018-08-16T07:44:34.000Z,0
2018-08-16T07:45:35.000Z,0
2018-08-16T07:46:36.000Z,0
2018-08-16T07:51:20.000Z,0
2018-08-16T07:51:26.000Z,0
2018-08-16T07:52:18.000Z,0
2018-08-16T07:59:35.000Z,0
2018-08-16T08:00:32.000Z,0
2018-08-16T08:01:31.000Z,0
2018-08-16T08:02:31.000Z,0
2018-08-16T08:03:31.000Z,0
2018-08-16T08:04:32.000Z,0
2018-08-16T08:05:31.000Z,0
2018-08-16T08:06:31.000Z,0
2018-08-16T08:07:31.000Z,0
2018-08-16T08:08:31.000Z,0
2018-08-16T08:09:31.000Z,0
2018-08-16T08:10:31.000Z,0
2018-08-16T08:11:31.000Z,0
2018-08-16T08:12:31.000Z,0
2018-08-16T08:13:31.000Z,0
2018-08-16T08:14:31.000Z,0
2018-08-16T08:15:31.000Z,0
2018-08-16T08:16:31.000Z,0
2018-08-16T08:17:31.000Z,0
2018-08-16T08:18:31.000Z,0
2018-08-16T08:19:31.000Z,0
2018-08-16T08:20:31.000Z,0
2018-08-16T08:21:30.000Z,0
2018-08-16T08:22:31.000Z,0
2018-08-16T08:23:32.000Z,0
2018-08-16T08:24:31.000Z,0
2018-08-16T08:25:31.000Z,0
2018-08-16T08:26:30.000Z,0
2018-08-16T08:27:30.000Z,0
2018-08-16T08:28:30.000Z,0
2018-08-16T08:29:29.000Z,0
2018-08-16T08:30:31.000Z,0
2018-08-16T08:31:31.000Z,0
2018-08-16T08:32:31.000Z,0
2018-08-16T08:33:32.000Z,0
2018-08-16T08:34:31.000Z,0
2018-08-16T08:35:31.000Z,0
2018-08-16T08:36:31.000Z,0
2018-08-16T08:37:31.000Z,0
2018-08-16T08:38:31.000Z,0
2018-08-16T08:39:32.000Z,0
2018-08-16T13:03:49.000Z,0
2018-08-16T13:04:29.000Z,0
2018-08-16T13:05:16.000Z,0
2018-08-16T13:06:16.000Z,0
2018-08-16T13:07:15.000Z,0
2018-08-16T13:08:16.000Z,0
2018-08-16T13:09:16.000Z,0
2018-08-16T13:10:15.000Z,0
2018-08-16T13:11:16.000Z,0
2018-08-16T13:12:16.000Z,0
2018-08-16T13:13:16.000Z,0
2018-08-16T13:14:15.000Z,0
2018-08-16T13:15:15.000Z,0
2018-08-16T13:16:15.000Z,0
2018-08-16T13:17:16.000Z,0
2018-08-16T13:18:15.000Z,3.593
2018-08-16T13:19:14.000Z,4.677
2018-08-16T13:20:14.000Z,4.683
2018-08-16T13:21:14.000Z,6.870
2018-08-16T13:22:15.000Z,0.773
2018-08-16T13:23:15.000Z,0
2018-08-16T14:19:00.000Z,0.926
2018-08-16T14:19:16.000Z,0.087
2018-08-16T14:20:14.000Z,0.194
2018-08-16T16:18:12.000Z,0.166
2018-08-16T16:18:44.000Z,0.673
2018-08-16T16:19:31.000Z,0.576
2018-08-16T16:20:31.000Z,0.189
2018-08-16T16:21:30.000Z,0.465
2018-08-16T16:22:31.000Z,0.203
2018-08-16T16:23:30.000Z,0.119
2018-08-16T16:24:30.000Z,0.136
2018-08-16T16:25:31.000Z,0.377
2018-08-16T16:26:31.000Z,1.082
2018-08-16T16:27:30.000Z,0.493
2018-08-16T16:28:31.000Z,0.495
2018-08-16T16:29:29.000Z,0.622
2018-08-16T16:30:30.000Z,0.701
2018-08-16T16:31:31.000Z,0.718
2018-08-16T16:32:31.000Z,0.079
2018-08-16T16:33:31.000Z,0.194
2018-08-16T16:34:30.000Z,0.088
2018-08-16T16:35:30.000Z,0.030
2018-08-16T16:36:29.000Z,0.159
2018-08-16T16:37:29.000Z,0.011
2018-08-16T16:38:29.000Z,0.046
2018-08-16T16:39:31.000Z,0.032
2018-08-16T16:40:30.000Z,0.127
2018-08-16T16:41:29.000Z,0.038
2018-08-16T16:42:30.000Z,0.015
2018-08-16T16:43:29.000Z,0.043
2018-08-16T16:44:29.000Z,0.082
2018-08-16T16:45:30.000Z,0.029
2018-08-16T16:46:30.000Z,0.034
2018-08-16T16:47:29.000Z,0.056
2018-08-16T16:48:29.000Z,0.015
2018-08-16T16:49:29.000Z,0.030
2018-08-16T16:50:30.000Z,0.026
2018-08-16T16:51:29.000Z,0.025
2018-08-16T16:52:29.000Z,0.041
2018-08-16T16:53:29.000Z,0.044
2018-08-16T16:54:30.000Z,0.045
2018-08-16T16:55:30.000Z,0.021
2018-08-16T16:56:29.000Z,0.090
2018-08-16T16:57:29.000Z,0.048
2018-08-16T16:58:30.000Z,0.009
2018-08-16T16:59:29.000Z,0.042
2018-08-16T17:00:29.000Z,0.063
2018-08-16T17:01:29.000Z,0.032
2018-08-16T17:02:30.000Z,0.054
2018-08-16T17:03:30.000Z,0.080
2018-08-16T17:04:30.000Z,0.080
2018-08-16T17:05:29.000Z,0.043
2018-08-16T17:06:30.000Z,0.009
2018-08-16T17:07:29.000Z,0.052
2018-08-16T17:08:30.000Z,0.029
2018-08-16T17:09:31.000Z,0.014
2018-08-16T17:10:29.000Z,0.076
2018-08-16T17:11:29.000Z,0.005
2018-08-16T17:12:30.000Z,0.057
2018-08-16T17:13:29.000Z,0.018
2018-08-16T17:14:29.000Z,0.017
2018-08-16T17:15:29.000Z,0.018
2018-08-16T17:16:29.000Z,0.035
2018-08-16T17:17:29.000Z,0.067
2018-08-16T17:18:29.000Z,0.008
2018-08-16T17:19:29.000Z,0.033
2018-08-16T17:20:29.000Z,0.018
2018-08-16T17:21:30.000Z,0.039
2018-08-16T17:22:29.000Z,0.019
2018-08-16T17:23:29.000Z,0.069
2018-08-16T17:24:29.000Z,0.016
2018-08-16T17:25:30.000Z,0.030
2018-08-16T17:26:30.000Z,0.057
2018-08-16T17:27:29.000Z,0.043
2018-08-16T17:28:29.000Z,0.027
2018-08-16T17:29:30.000Z,0.033
2018-08-16T17:30:29.000Z,0.059
2018-08-16T17:31:30.000Z,0.090
2018-08-16T17:32:30.000Z,0.021
2018-08-16T17:33:29.000Z,0.079
2018-08-16T17:34:29.000Z,0.010
2018-08-16T17:35:29.000Z,0.076
2018-08-16T17:36:29.000Z,0.079
2018-08-16T17:37:30.000Z,0.035
2018-08-16T17:38:30.000Z,0.030
2018-08-16T17:39:29.000Z,0.029
2018-08-16T17:40:29.000Z,0.023
2018-08-16T17:41:30.000Z,0.057
2018-08-16T17:42:29.000Z,0.021
2018-08-16T17:43:29.000Z,0.005
2018-08-16T17:44:30.000Z,0.037
2018-08-16T17:45:30.000Z,0.044
2018-08-16T17:46:30.000Z,0.046
2018-08-16T17:47:29.000Z,0.082
2018-08-16T17:48:29.000Z,0.012
2018-08-16T17:49:29.000Z,0.113
2018-08-16T17:50:30.000Z,0.071
2018-08-16T17:51:30.000Z,0.054
2018-08-16T17:52:30.000Z,0.071
2018-08-16T17:53:29.000Z,0.054
2018-08-16T17:54:29.000Z,0.092
2018-08-16T17:55:29.000Z,0.144
2018-08-16T17:56:30.000Z,0.047
